sensor_id;sensor_type;location;lat;lon;timestamp;P1;durP1;ratioP1;P2;durP2;ratioP2
33268;SDS011;19640;50.944;5.260;2024-03-29T00:01:18;0.43;;;0.28;;
33268;SDS011;19640;50.944;5.260;2024-03-29T00:03:43;2.90;;;0.30;;
33268;SDS011;19640;50.944;5.260;2024-03-29T00:06:09;3.00;;;0.50;;
33268;SDS011;19640;50.944;5.260;2024-03-29T00:08:35;4.30;;;0.65;;
33268;SDS011;19640;50.944;5.260;2024-03-29T00:11:02;1.30;;;0.52;;
33268;SDS011;19640;50.944;5.260;2024-03-29T00:13:28;3.92;;;0.75;;
33268;SDS011;19640;50.944;5.260;2024-03-29T00:15:53;2.05;;;0.40;;
33268;SDS011;19640;50.944;5.260;2024-03-29T00:18:19;3.28;;;0.77;;
33268;SDS011;19640;50.944;5.260;2024-03-29T00:20:45;2.22;;;0.55;;
33268;SDS011;19640;50.944;5.260;2024-03-29T00:23:10;1.55;;;0.32;;
33268;SDS011;19640;50.944;5.260;2024-03-29T00:25:36;4.50;;;0.40;;
33268;SDS011;19640;50.944;5.260;2024-03-29T00:28:02;4.40;;;0.60;;
33268;SDS011;19640;50.944;5.260;2024-03-29T00:30:28;4.10;;;0.50;;
33268;SDS011;19640;50.944;5.260;2024-03-29T00:32:54;1.23;;;0.40;;
33268;SDS011;19640;50.944;5.260;2024-03-29T00:35:20;2.72;;;0.60;;
33268;SDS011;19640;50.944;5.260;2024-03-29T00:37:47;2.15;;;0.55;;
33268;SDS011;19640;50.944;5.260;2024-03-29T00:40:13;4.07;;;0.50;;
33268;SDS011;19640;50.944;5.260;2024-03-29T00:42:39;3.55;;;0.80;;
33268;SDS011;19640;50.944;5.260;2024-03-29T00:45:05;7.35;;;0.80;;
33268;SDS011;19640;50.944;5.260;2024-03-29T00:47:31;2.38;;;0.55;;
33268;SDS011;19640;50.944;5.260;2024-03-29T00:49:57;1.63;;;0.47;;
33268;SDS011;19640;50.944;5.260;2024-03-29T00:52:23;1.85;;;0.60;;
33268;SDS011;19640;50.944;5.260;2024-03-29T00:54:49;0.95;;;0.43;;
33268;SDS011;19640;50.944;5.260;2024-03-29T00:57:15;1.65;;;0.55;;
33268;SDS011;19640;50.944;5.260;2024-03-29T00:59:41;2.50;;;0.70;;
33268;SDS011;19640;50.944;5.260;2024-03-29T01:02:08;1.42;;;0.40;;
33268;SDS011;19640;50.944;5.260;2024-03-29T01:04:34;2.75;;;0.50;;
33268;SDS011;19640;50.944;5.260;2024-03-29T01:07:00;2.83;;;0.30;;
33268;SDS011;19640;50.944;5.260;2024-03-29T01:09:26;2.38;;;0.47;;
33268;SDS011;19640;50.944;5.260;2024-03-29T01:11:51;2.22;;;0.40;;
33268;SDS011;19640;50.944;5.260;2024-03-29T01:14:18;1.75;;;0.35;;
33268;SDS011;19640;50.944;5.260;2024-03-29T01:16:43;2.55;;;0.40;;
33268;SDS011;19640;50.944;5.260;2024-03-29T01:19:09;4.65;;;0.60;;
33268;SDS011;19640;50.944;5.260;2024-03-29T01:21:35;2.22;;;0.30;;
33268;SDS011;19640;50.944;5.260;2024-03-29T01:24:01;2.55;;;0.52;;
33268;SDS011;19640;50.944;5.260;2024-03-29T01:26:27;2.92;;;0.40;;
33268;SDS011;19640;50.944;5.260;2024-03-29T01:28:53;1.35;;;0.50;;
33268;SDS011;19640;50.944;5.260;2024-03-29T01:31:19;2.40;;;0.52;;
33268;SDS011;19640;50.944;5.260;2024-03-29T01:33:44;1.48;;;0.43;;
33268;SDS011;19640;50.944;5.260;2024-03-29T01:36:10;7.75;;;0.60;;
33268;SDS011;19640;50.944;5.260;2024-03-29T01:38:36;1.80;;;0.30;;
33268;SDS011;19640;50.944;5.260;2024-03-29T01:41:01;0.80;;;0.40;;
33268;SDS011;19640;50.944;5.260;2024-03-29T01:43:27;1.17;;;0.30;;
33268;SDS011;19640;50.944;5.260;2024-03-29T01:45:54;0.47;;;0.30;;
33268;SDS011;19640;50.944;5.260;2024-03-29T01:48:21;2.15;;;0.45;;
33268;SDS011;19640;50.944;5.260;2024-03-29T01:50:48;1.65;;;0.50;;
33268;SDS011;19640;50.944;5.260;2024-03-29T01:53:15;0.60;;;0.20;;
33268;SDS011;19640;50.944;5.260;2024-03-29T01:55:43;1.92;;;0.43;;
33268;SDS011;19640;50.944;5.260;2024-03-29T01:58:09;0.93;;;0.47;;
33268;SDS011;19640;50.944;5.260;2024-03-29T02:00:36;0.68;;;0.40;;
33268;SDS011;19640;50.944;5.260;2024-03-29T02:03:06;4.32;;;0.40;;
33268;SDS011;19640;50.944;5.260;2024-03-29T02:05:37;0.75;;;0.30;;
33268;SDS011;19640;50.944;5.260;2024-03-29T02:08:07;1.52;;;0.47;;
33268;SDS011;19640;50.944;5.260;2024-03-29T02:10:34;1.27;;;0.60;;
33268;SDS011;19640;50.944;5.260;2024-03-29T02:13:00;2.15;;;0.40;;
33268;SDS011;19640;50.944;5.260;2024-03-29T02:15:27;3.53;;;0.43;;
33268;SDS011;19640;50.944;5.260;2024-03-29T02:17:53;1.75;;;0.50;;
33268;SDS011;19640;50.944;5.260;2024-03-29T02:20:19;1.30;;;0.40;;
33268;SDS011;19640;50.944;5.260;2024-03-29T02:22:55;0.98;;;0.15;;
33268;SDS011;19640;50.944;5.260;2024-03-29T02:25:24;1.17;;;0.28;;
33268;SDS011;19640;50.944;5.260;2024-03-29T02:27:51;1.20;;;0.20;;
33268;SDS011;19640;50.944;5.260;2024-03-29T02:30:17;1.17;;;0.40;;
33268;SDS011;19640;50.944;5.260;2024-03-29T02:32:43;3.53;;;0.50;;
33268;SDS011;19640;50.944;5.260;2024-03-29T02:35:09;0.70;;;0.20;;
33268;SDS011;19640;50.944;5.260;2024-03-29T02:37:35;1.48;;;0.30;;
33268;SDS011;19640;50.944;5.260;2024-03-29T02:40:02;2.17;;;0.68;;
33268;SDS011;19640;50.944;5.260;2024-03-29T02:42:28;0.73;;;0.20;;
33268;SDS011;19640;50.944;5.260;2024-03-29T02:44:54;0.45;;;0.20;;
33268;SDS011;19640;50.944;5.260;2024-03-29T02:47:21;1.35;;;0.20;;
33268;SDS011;19640;50.944;5.260;2024-03-29T02:49:47;0.63;;;0.32;;
33268;SDS011;19640;50.944;5.260;2024-03-29T02:52:13;1.65;;;0.93;;
33268;SDS011;19640;50.944;5.260;2024-03-29T02:54:40;0.40;;;0.30;;
33268;SDS011;19640;50.944;5.260;2024-03-29T02:57:06;0.85;;;0.47;;
33268;SDS011;19640;50.944;5.260;2024-03-29T02:59:32;0.77;;;0.35;;
33268;SDS011;19640;50.944;5.260;2024-03-29T03:01:57;1.95;;;0.47;;
33268;SDS011;19640;50.944;5.260;2024-03-29T03:04:23;3.33;;;0.50;;
33268;SDS011;19640;50.944;5.260;2024-03-29T03:06:49;1.17;;;0.38;;
33268;SDS011;19640;50.944;5.260;2024-03-29T03:09:14;1.10;;;0.50;;
33268;SDS011;19640;50.944;5.260;2024-03-29T03:11:58;0.70;;;0.30;;
33268;SDS011;19640;50.944;5.260;2024-03-29T03:14:24;0.57;;;0.30;;
33268;SDS011;19640;50.944;5.260;2024-03-29T03:16:50;1.50;;;0.40;;
33268;SDS011;19640;50.944;5.260;2024-03-29T03:19:16;2.28;;;0.50;;
33268;SDS011;19640;50.944;5.260;2024-03-29T03:21:41;2.92;;;0.57;;
33268;SDS011;19640;50.944;5.260;2024-03-29T03:24:07;2.95;;;0.63;;
33268;SDS011;19640;50.944;5.260;2024-03-29T03:26:33;1.08;;;0.52;;
33268;SDS011;19640;50.944;5.260;2024-03-29T03:28:58;2.83;;;0.38;;
33268;SDS011;19640;50.944;5.260;2024-03-29T03:31:24;1.40;;;0.40;;
33268;SDS011;19640;50.944;5.260;2024-03-29T03:33:49;1.77;;;0.50;;
33268;SDS011;19640;50.944;5.260;2024-03-29T03:36:15;2.10;;;0.50;;
33268;SDS011;19640;50.944;5.260;2024-03-29T03:38:41;3.00;;;0.50;;
33268;SDS011;19640;50.944;5.260;2024-03-29T03:41:07;3.85;;;0.52;;
33268;SDS011;19640;50.944;5.260;2024-03-29T03:43:32;1.50;;;0.52;;
33268;SDS011;19640;50.944;5.260;2024-03-29T03:46:01;0.70;;;0.50;;
33268;SDS011;19640;50.944;5.260;2024-03-29T03:48:28;2.38;;;0.52;;
33268;SDS011;19640;50.944;5.260;2024-03-29T03:50:56;1.42;;;0.47;;
33268;SDS011;19640;50.944;5.260;2024-03-29T03:53:22;2.80;;;0.50;;
33268;SDS011;19640;50.944;5.260;2024-03-29T03:55:48;0.52;;;0.30;;
33268;SDS011;19640;50.944;5.260;2024-03-29T03:58:14;3.03;;;0.50;;
33268;SDS011;19640;50.944;5.260;2024-03-29T04:00:39;1.88;;;0.38;;
33268;SDS011;19640;50.944;5.260;2024-03-29T04:03:05;1.27;;;0.45;;
33268;SDS011;19640;50.944;5.260;2024-03-29T04:05:31;1.45;;;0.30;;
33268;SDS011;19640;50.944;5.260;2024-03-29T04:07:57;1.75;;;0.40;;
33268;SDS011;19640;50.944;5.260;2024-03-29T04:10:23;2.17;;;0.30;;
33268;SDS011;19640;50.944;5.260;2024-03-29T04:12:52;2.75;;;0.40;;
33268;SDS011;19640;50.944;5.260;2024-03-29T04:15:17;1.85;;;0.40;;
33268;SDS011;19640;50.944;5.260;2024-03-29T04:17:43;3.13;;;0.57;;
33268;SDS011;19640;50.944;5.260;2024-03-29T04:20:09;0.93;;;0.40;;
33268;SDS011;19640;50.944;5.260;2024-03-29T04:22:35;2.03;;;0.50;;
33268;SDS011;19640;50.944;5.260;2024-03-29T04:25:00;1.45;;;0.43;;
33268;SDS011;19640;50.944;5.260;2024-03-29T04:27:27;1.95;;;0.52;;
33268;SDS011;19640;50.944;5.260;2024-03-29T04:29:53;0.90;;;0.40;;
33268;SDS011;19640;50.944;5.260;2024-03-29T04:32:19;0.70;;;0.20;;
33268;SDS011;19640;50.944;5.260;2024-03-29T04:34:46;2.50;;;0.40;;
33268;SDS011;19640;50.944;5.260;2024-03-29T04:37:13;1.35;;;0.73;;
33268;SDS011;19640;50.944;5.260;2024-03-29T04:39:38;1.05;;;0.30;;
33268;SDS011;19640;50.944;5.260;2024-03-29T04:42:04;1.50;;;0.40;;
33268;SDS011;19640;50.944;5.260;2024-03-29T04:44:30;0.70;;;0.47;;
33268;SDS011;19640;50.944;5.260;2024-03-29T04:46:56;2.15;;;0.50;;
33268;SDS011;19640;50.944;5.260;2024-03-29T04:49:22;2.13;;;0.50;;
33268;SDS011;19640;50.944;5.260;2024-03-29T04:52:14;4.75;;;0.70;;
33268;SDS011;19640;50.944;5.260;2024-03-29T04:54:40;1.45;;;0.50;;
33268;SDS011;19640;50.944;5.260;2024-03-29T04:57:06;1.02;;;0.28;;
33268;SDS011;19640;50.944;5.260;2024-03-29T04:59:34;0.50;;;0.32;;
33268;SDS011;19640;50.944;5.260;2024-03-29T05:02:00;1.38;;;0.40;;
33268;SDS011;19640;50.944;5.260;2024-03-29T05:04:26;4.47;;;0.70;;
33268;SDS011;19640;50.944;5.260;2024-03-29T05:06:53;3.55;;;0.80;;
33268;SDS011;19640;50.944;5.260;2024-03-29T05:09:20;2.88;;;0.80;;
33268;SDS011;19640;50.944;5.260;2024-03-29T05:11:46;6.03;;;1.10;;
33268;SDS011;19640;50.944;5.260;2024-03-29T05:14:13;1.42;;;0.70;;
33268;SDS011;19640;50.944;5.260;2024-03-29T05:16:47;4.15;;;0.70;;
33268;SDS011;19640;50.944;5.260;2024-03-29T05:19:14;1.20;;;0.60;;
33268;SDS011;19640;50.944;5.260;2024-03-29T05:21:41;2.15;;;0.68;;
33268;SDS011;19640;50.944;5.260;2024-03-29T05:24:07;1.42;;;0.40;;
33268;SDS011;19640;50.944;5.260;2024-03-29T05:26:34;2.85;;;0.50;;
33268;SDS011;19640;50.944;5.260;2024-03-29T05:29:00;2.05;;;0.40;;
33268;SDS011;19640;50.944;5.260;2024-03-29T05:31:25;2.33;;;0.40;;
33268;SDS011;19640;50.944;5.260;2024-03-29T05:33:54;1.63;;;0.50;;
33268;SDS011;19640;50.944;5.260;2024-03-29T05:36:20;1.50;;;0.73;;
33268;SDS011;19640;50.944;5.260;2024-03-29T05:38:46;4.63;;;0.85;;
33268;SDS011;19640;50.944;5.260;2024-03-29T05:41:11;0.60;;;0.50;;
33268;SDS011;19640;50.944;5.260;2024-03-29T05:43:40;3.20;;;0.60;;
33268;SDS011;19640;50.944;5.260;2024-03-29T05:46:05;6.75;;;1.30;;
33268;SDS011;19640;50.944;5.260;2024-03-29T05:48:31;2.13;;;0.57;;
33268;SDS011;19640;50.944;5.260;2024-03-29T05:50:57;1.58;;;0.60;;
33268;SDS011;19640;50.944;5.260;2024-03-29T05:53:23;3.83;;;0.80;;
33268;SDS011;19640;50.944;5.260;2024-03-29T05:55:49;3.35;;;0.80;;
33268;SDS011;19640;50.944;5.260;2024-03-29T05:58:15;2.40;;;0.77;;
33268;SDS011;19640;50.944;5.260;2024-03-29T06:00:43;2.13;;;0.63;;
33268;SDS011;19640;50.944;5.260;2024-03-29T06:03:09;2.15;;;0.63;;
33268;SDS011;19640;50.944;5.260;2024-03-29T06:05:34;0.93;;;0.65;;
33268;SDS011;19640;50.944;5.260;2024-03-29T06:08:00;2.50;;;0.73;;
33268;SDS011;19640;50.944;5.260;2024-03-29T06:10:26;2.13;;;0.82;;
33268;SDS011;19640;50.944;5.260;2024-03-29T06:12:51;1.15;;;0.55;;
33268;SDS011;19640;50.944;5.260;2024-03-29T06:15:17;1.70;;;0.68;;
33268;SDS011;19640;50.944;5.260;2024-03-29T06:18:01;3.42;;;0.80;;
33268;SDS011;19640;50.944;5.260;2024-03-29T06:20:27;1.60;;;0.68;;
33268;SDS011;19640;50.944;5.260;2024-03-29T06:22:53;4.85;;;0.85;;
33268;SDS011;19640;50.944;5.260;2024-03-29T06:25:19;3.53;;;0.77;;
33268;SDS011;19640;50.944;5.260;2024-03-29T06:27:44;4.18;;;0.98;;
33268;SDS011;19640;50.944;5.260;2024-03-29T06:30:13;3.35;;;0.90;;
33268;SDS011;19640;50.944;5.260;2024-03-29T06:32:41;3.90;;;0.80;;
33268;SDS011;19640;50.944;5.260;2024-03-29T06:35:06;2.75;;;0.90;;
33268;SDS011;19640;50.944;5.260;2024-03-29T06:37:32;1.90;;;0.70;;
33268;SDS011;19640;50.944;5.260;2024-03-29T06:39:58;1.13;;;0.88;;
33268;SDS011;19640;50.944;5.260;2024-03-29T06:42:24;3.60;;;0.95;;
33268;SDS011;19640;50.944;5.260;2024-03-29T06:44:50;2.95;;;0.93;;
33268;SDS011;19640;50.944;5.260;2024-03-29T06:47:17;3.28;;;0.68;;
33268;SDS011;19640;50.944;5.260;2024-03-29T06:49:42;1.85;;;1.00;;
33268;SDS011;19640;50.944;5.260;2024-03-29T06:52:08;4.03;;;1.25;;
33268;SDS011;19640;50.944;5.260;2024-03-29T06:54:34;2.15;;;0.80;;
33268;SDS011;19640;50.944;5.260;2024-03-29T06:56:59;2.15;;;1.00;;
33268;SDS011;19640;50.944;5.260;2024-03-29T06:59:26;2.65;;;1.08;;
33268;SDS011;19640;50.944;5.260;2024-03-29T07:01:52;2.22;;;0.82;;
33268;SDS011;19640;50.944;5.260;2024-03-29T07:04:22;1.38;;;0.77;;
33268;SDS011;19640;50.944;5.260;2024-03-29T07:06:49;3.45;;;1.08;;
33268;SDS011;19640;50.944;5.260;2024-03-29T07:09:18;1.45;;;0.90;;
33268;SDS011;19640;50.944;5.260;2024-03-29T07:11:48;3.72;;;0.90;;
33268;SDS011;19640;50.944;5.260;2024-03-29T07:14:15;5.25;;;0.95;;
33268;SDS011;19640;50.944;5.260;2024-03-29T07:16:42;2.22;;;0.88;;
33268;SDS011;19640;50.944;5.260;2024-03-29T07:19:08;2.05;;;0.90;;
33268;SDS011;19640;50.944;5.260;2024-03-29T07:21:34;1.83;;;1.10;;
33268;SDS011;19640;50.944;5.260;2024-03-29T07:23:59;2.13;;;1.00;;
33268;SDS011;19640;50.944;5.260;2024-03-29T07:26:25;5.32;;;1.17;;
33268;SDS011;19640;50.944;5.260;2024-03-29T07:28:51;2.85;;;0.82;;
33268;SDS011;19640;50.944;5.260;2024-03-29T07:31:16;0.98;;;0.73;;
33268;SDS011;19640;50.944;5.260;2024-03-29T07:33:42;1.52;;;0.85;;
33268;SDS011;19640;50.944;5.260;2024-03-29T07:36:08;2.88;;;1.27;;
33268;SDS011;19640;50.944;5.260;2024-03-29T07:38:36;1.45;;;1.00;;
33268;SDS011;19640;50.944;5.260;2024-03-29T07:41:03;2.13;;;0.93;;
33268;SDS011;19640;50.944;5.260;2024-03-29T07:43:40;2.05;;;1.08;;
33268;SDS011;19640;50.944;5.260;2024-03-29T07:46:15;1.85;;;0.95;;
33268;SDS011;19640;50.944;5.260;2024-03-29T07:48:41;2.67;;;1.02;;
33268;SDS011;19640;50.944;5.260;2024-03-29T07:51:07;2.53;;;0.90;;
33268;SDS011;19640;50.944;5.260;2024-03-29T07:53:32;3.00;;;0.80;;
33268;SDS011;19640;50.944;5.260;2024-03-29T07:55:58;1.63;;;0.95;;
33268;SDS011;19640;50.944;5.260;2024-03-29T07:58:24;2.45;;;1.10;;
33268;SDS011;19640;50.944;5.260;2024-03-29T08:00:51;3.85;;;0.90;;
33268;SDS011;19640;50.944;5.260;2024-03-29T08:03:17;2.13;;;0.90;;
33268;SDS011;19640;50.944;5.260;2024-03-29T08:05:43;2.35;;;1.15;;
33268;SDS011;19640;50.944;5.260;2024-03-29T08:08:22;2.78;;;1.30;;
33268;SDS011;19640;50.944;5.260;2024-03-29T08:10:50;4.03;;;1.10;;
33268;SDS011;19640;50.944;5.260;2024-03-29T08:13:15;2.70;;;1.00;;
33268;SDS011;19640;50.944;5.260;2024-03-29T08:15:45;1.90;;;1.10;;
33268;SDS011;19640;50.944;5.260;2024-03-29T08:18:11;2.40;;;1.25;;
33268;SDS011;19640;50.944;5.260;2024-03-29T08:20:37;2.78;;;0.90;;
33268;SDS011;19640;50.944;5.260;2024-03-29T08:23:03;1.15;;;0.80;;
33268;SDS011;19640;50.944;5.260;2024-03-29T08:25:29;1.35;;;1.10;;
33268;SDS011;19640;50.944;5.260;2024-03-29T08:27:55;2.00;;;0.98;;
33268;SDS011;19640;50.944;5.260;2024-03-29T08:30:24;1.35;;;0.80;;
33268;SDS011;19640;50.944;5.260;2024-03-29T08:32:59;2.08;;;1.25;;
33268;SDS011;19640;50.944;5.260;2024-03-29T08:35:27;2.72;;;0.75;;
33268;SDS011;19640;50.944;5.260;2024-03-29T08:37:53;2.97;;;1.10;;
33268;SDS011;19640;50.944;5.260;2024-03-29T08:40:19;5.35;;;0.85;;
33268;SDS011;19640;50.944;5.260;2024-03-29T08:42:45;2.60;;;0.82;;
33268;SDS011;19640;50.944;5.260;2024-03-29T08:45:10;1.50;;;0.80;;
33268;SDS011;19640;50.944;5.260;2024-03-29T08:47:37;2.15;;;0.77;;
33268;SDS011;19640;50.944;5.260;2024-03-29T08:50:03;0.73;;;0.65;;
33268;SDS011;19640;50.944;5.260;2024-03-29T08:52:30;1.75;;;0.95;;
33268;SDS011;19640;50.944;5.260;2024-03-29T08:54:56;1.40;;;0.77;;
33268;SDS011;19640;50.944;5.260;2024-03-29T08:57:21;2.17;;;0.85;;
33268;SDS011;19640;50.944;5.260;2024-03-29T08:59:47;3.83;;;0.80;;
33268;SDS011;19640;50.944;5.260;2024-03-29T09:02:13;1.98;;;0.70;;
33268;SDS011;19640;50.944;5.260;2024-03-29T09:04:39;2.15;;;0.70;;
33268;SDS011;19640;50.944;5.260;2024-03-29T09:07:04;0.80;;;0.60;;
33268;SDS011;19640;50.944;5.260;2024-03-29T09:09:31;1.17;;;0.82;;
33268;SDS011;19640;50.944;5.260;2024-03-29T09:11:57;0.80;;;0.68;;
33268;SDS011;19640;50.944;5.260;2024-03-29T09:14:23;1.42;;;0.70;;
33268;SDS011;19640;50.944;5.260;2024-03-29T09:16:50;1.95;;;0.75;;
33268;SDS011;19640;50.944;5.260;2024-03-29T09:19:16;1.83;;;0.80;;
33268;SDS011;19640;50.944;5.260;2024-03-29T09:21:42;1.63;;;0.80;;
33268;SDS011;19640;50.944;5.260;2024-03-29T09:24:07;0.70;;;0.60;;
33268;SDS011;19640;50.944;5.260;2024-03-29T09:26:33;1.85;;;0.88;;
33268;SDS011;19640;50.944;5.260;2024-03-29T09:28:59;1.05;;;0.60;;
33268;SDS011;19640;50.944;5.260;2024-03-29T09:31:24;0.60;;;0.60;;
33268;SDS011;19640;50.944;5.260;2024-03-29T09:33:50;1.50;;;0.70;;
33268;SDS011;19640;50.944;5.260;2024-03-29T09:36:23;0.80;;;0.40;;
33268;SDS011;19640;50.944;5.260;2024-03-29T09:38:49;2.13;;;0.50;;
33268;SDS011;19640;50.944;5.260;2024-03-29T09:41:16;2.88;;;0.77;;
33268;SDS011;19640;50.944;5.260;2024-03-29T09:43:44;1.08;;;0.45;;
33268;SDS011;19640;50.944;5.260;2024-03-29T09:46:14;1.02;;;0.80;;
33268;SDS011;19640;50.944;5.260;2024-03-29T09:48:42;1.10;;;0.70;;
33268;SDS011;19640;50.944;5.260;2024-03-29T09:51:10;2.15;;;0.52;;
33268;SDS011;19640;50.944;5.260;2024-03-29T09:53:40;1.08;;;0.70;;
33268;SDS011;19640;50.944;5.260;2024-03-29T09:56:07;1.17;;;0.80;;
33268;SDS011;19640;50.944;5.260;2024-03-29T09:58:34;2.55;;;0.70;;
33268;SDS011;19640;50.944;5.260;2024-03-29T10:01:04;1.40;;;0.90;;
33268;SDS011;19640;50.944;5.260;2024-03-29T10:03:31;3.20;;;0.82;;
33268;SDS011;19640;50.944;5.260;2024-03-29T10:06:01;2.70;;;0.82;;
33268;SDS011;19640;50.944;5.260;2024-03-29T10:08:28;3.22;;;0.80;;
33268;SDS011;19640;50.944;5.260;2024-03-29T10:10:58;1.50;;;0.75;;
33268;SDS011;19640;50.944;5.260;2024-03-29T10:13:24;1.05;;;0.68;;
33268;SDS011;19640;50.944;5.260;2024-03-29T10:15:54;2.78;;;0.85;;
33268;SDS011;19640;50.944;5.260;2024-03-29T10:18:29;0.70;;;0.70;;
33268;SDS011;19640;50.944;5.260;2024-03-29T10:21:02;0.82;;;0.70;;
33268;SDS011;19640;50.944;5.260;2024-03-29T10:23:30;1.20;;;0.90;;
33268;SDS011;19640;50.944;5.260;2024-03-29T10:25:57;1.33;;;0.88;;
33268;SDS011;19640;50.944;5.260;2024-03-29T10:28:23;2.53;;;0.80;;
33268;SDS011;19640;50.944;5.260;2024-03-29T10:30:57;1.40;;;0.90;;
33268;SDS011;19640;50.944;5.260;2024-03-29T10:33:23;1.90;;;0.75;;
33268;SDS011;19640;50.944;5.260;2024-03-29T10:35:52;0.68;;;0.68;;
33268;SDS011;19640;50.944;5.260;2024-03-29T10:38:20;2.17;;;0.70;;
33268;SDS011;19640;50.944;5.260;2024-03-29T10:40:46;1.70;;;0.88;;
33268;SDS011;19640;50.944;5.260;2024-03-29T10:43:13;2.08;;;1.00;;
33268;SDS011;19640;50.944;5.260;2024-03-29T10:45:41;4.75;;;0.80;;
33268;SDS011;19640;50.944;5.260;2024-03-29T10:48:09;2.28;;;1.00;;
33268;SDS011;19640;50.944;5.260;2024-03-29T10:50:35;0.77;;;0.70;;
33268;SDS011;19640;50.944;5.260;2024-03-29T10:53:02;4.25;;;0.95;;
33268;SDS011;19640;50.944;5.260;2024-03-29T10:55:37;2.50;;;0.73;;
33268;SDS011;19640;50.944;5.260;2024-03-29T10:58:03;1.08;;;0.50;;
33268;SDS011;19640;50.944;5.260;2024-03-29T11:00:33;1.27;;;0.70;;
33268;SDS011;19640;50.944;5.260;2024-03-29T11:03:16;1.15;;;0.38;;
33268;SDS011;19640;50.944;5.260;2024-03-29T11:08:24;0.75;;;0.40;;
33268;SDS011;19640;50.944;5.260;2024-03-29T11:10:56;1.13;;;0.30;;
33268;SDS011;19640;50.944;5.260;2024-03-29T11:16:19;0.90;;;0.40;;
33268;SDS011;19640;50.944;5.260;2024-03-29T11:18:45;1.13;;;0.32;;
33268;SDS011;19640;50.944;5.260;2024-03-29T11:21:14;1.00;;;0.40;;
33268;SDS011;19640;50.944;5.260;2024-03-29T11:23:48;1.10;;;0.30;;
33268;SDS011;19640;50.944;5.260;2024-03-29T11:26:14;0.68;;;0.40;;
33268;SDS011;19640;50.944;5.260;2024-03-29T11:28:47;1.15;;;0.40;;
33268;SDS011;19640;50.944;5.260;2024-03-29T11:31:17;0.70;;;0.40;;
33268;SDS011;19640;50.944;5.260;2024-03-29T11:33:47;0.60;;;0.30;;
33268;SDS011;19640;50.944;5.260;2024-03-29T11:36:20;0.32;;;0.20;;
33268;SDS011;19640;50.944;5.260;2024-03-29T11:38:50;0.85;;;0.40;;
33268;SDS011;19640;50.944;5.260;2024-03-29T11:41:18;0.98;;;0.50;;
33268;SDS011;19640;50.944;5.260;2024-03-29T11:43:48;4.47;;;0.50;;
33268;SDS011;19640;50.944;5.260;2024-03-29T11:46:15;5.72;;;0.68;;
33268;SDS011;19640;50.944;5.260;2024-03-29T11:48:41;1.08;;;0.40;;
33268;SDS011;19640;50.944;5.260;2024-03-29T11:51:07;1.38;;;0.85;;
33268;SDS011;19640;50.944;5.260;2024-03-29T11:53:35;0.60;;;0.30;;
33268;SDS011;19640;50.944;5.260;2024-03-29T11:56:01;0.47;;;0.30;;
33268;SDS011;19640;50.944;5.260;2024-03-29T11:58:28;1.10;;;0.40;;
33268;SDS011;19640;50.944;5.260;2024-03-29T12:00:55;1.95;;;0.40;;
33268;SDS011;19640;50.944;5.260;2024-03-29T12:03:22;0.73;;;0.50;;
33268;SDS011;19640;50.944;5.260;2024-03-29T12:05:53;0.85;;;0.30;;
33268;SDS011;19640;50.944;5.260;2024-03-29T12:08:24;0.63;;;0.30;;
33268;SDS011;19640;50.944;5.260;2024-03-29T12:10:51;2.70;;;0.40;;
33268;SDS011;19640;50.944;5.260;2024-03-29T12:13:17;1.05;;;0.30;;
33268;SDS011;19640;50.944;5.260;2024-03-29T12:15:43;1.58;;;0.40;;
33268;SDS011;19640;50.944;5.260;2024-03-29T12:18:09;1.00;;;0.55;;
33268;SDS011;19640;50.944;5.260;2024-03-29T12:20:37;0.55;;;0.20;;
33268;SDS011;19640;50.944;5.260;2024-03-29T12:23:04;1.65;;;0.57;;
33268;SDS011;19640;50.944;5.260;2024-03-29T12:25:38;0.95;;;0.40;;
33268;SDS011;19640;50.944;5.260;2024-03-29T12:28:04;1.63;;;0.55;;
33268;SDS011;19640;50.944;5.260;2024-03-29T12:30:32;1.90;;;0.50;;
33268;SDS011;19640;50.944;5.260;2024-03-29T12:33:02;0.77;;;0.40;;
33268;SDS011;19640;50.944;5.260;2024-03-29T12:35:31;1.33;;;0.45;;
33268;SDS011;19640;50.944;5.260;2024-03-29T12:37:59;0.75;;;0.40;;
33268;SDS011;19640;50.944;5.260;2024-03-29T12:40:29;1.52;;;0.50;;
33268;SDS011;19640;50.944;5.260;2024-03-29T12:43:07;1.40;;;0.95;;
33268;SDS011;19640;50.944;5.260;2024-03-29T12:45:34;2.40;;;0.82;;
33268;SDS011;19640;50.944;5.260;2024-03-29T12:48:01;1.00;;;0.45;;
33268;SDS011;19640;50.944;5.260;2024-03-29T12:50:31;1.23;;;0.40;;
33268;SDS011;19640;50.944;5.260;2024-03-29T12:52:58;0.50;;;0.45;;
33268;SDS011;19640;50.944;5.260;2024-03-29T12:55:26;1.00;;;0.50;;
33268;SDS011;19640;50.944;5.260;2024-03-29T12:57:57;1.42;;;0.50;;
33268;SDS011;19640;50.944;5.260;2024-03-29T13:00:25;1.83;;;0.60;;
33268;SDS011;19640;50.944;5.260;2024-03-29T13:02:52;1.23;;;0.60;;
33268;SDS011;19640;50.944;5.260;2024-03-29T13:05:18;1.15;;;0.40;;
33268;SDS011;19640;50.944;5.260;2024-03-29T13:07:44;1.13;;;0.35;;
33268;SDS011;19640;50.944;5.260;2024-03-29T13:10:10;0.55;;;0.32;;
33268;SDS011;19640;50.944;5.260;2024-03-29T13:12:44;1.35;;;0.47;;
33268;SDS011;19640;50.944;5.260;2024-03-29T13:15:24;0.80;;;0.80;;
33268;SDS011;19640;50.944;5.260;2024-03-29T13:17:52;0.60;;;0.40;;
33268;SDS011;19640;50.944;5.260;2024-03-29T13:20:19;0.43;;;0.40;;
33268;SDS011;19640;50.944;5.260;2024-03-29T13:22:45;1.33;;;0.47;;
33268;SDS011;19640;50.944;5.260;2024-03-29T13:25:14;1.17;;;0.40;;
33268;SDS011;19640;50.944;5.260;2024-03-29T13:27:43;1.30;;;0.30;;
33268;SDS011;19640;50.944;5.260;2024-03-29T13:30:11;1.35;;;0.50;;
33268;SDS011;19640;50.944;5.260;2024-03-29T13:32:39;0.57;;;0.25;;
33268;SDS011;19640;50.944;5.260;2024-03-29T13:35:05;1.30;;;0.40;;
33268;SDS011;19640;50.944;5.260;2024-03-29T13:37:37;1.00;;;0.30;;
33268;SDS011;19640;50.944;5.260;2024-03-29T13:40:05;0.70;;;0.40;;
33268;SDS011;19640;50.944;5.260;2024-03-29T13:42:32;1.88;;;0.65;;
33268;SDS011;19640;50.944;5.260;2024-03-29T13:44:58;1.48;;;0.50;;
33268;SDS011;19640;50.944;5.260;2024-03-29T13:47:23;1.10;;;0.50;;
33268;SDS011;19640;50.944;5.260;2024-03-29T13:49:49;0.90;;;0.38;;
33268;SDS011;19640;50.944;5.260;2024-03-29T13:52:19;0.35;;;0.30;;
33268;SDS011;19640;50.944;5.260;2024-03-29T13:54:45;1.63;;;0.35;;
33268;SDS011;19640;50.944;5.260;2024-03-29T13:57:12;2.55;;;0.30;;
33268;SDS011;19640;50.944;5.260;2024-03-29T13:59:38;2.05;;;0.50;;
33268;SDS011;19640;50.944;5.260;2024-03-29T14:02:04;1.35;;;0.30;;
33268;SDS011;19640;50.944;5.260;2024-03-29T14:04:30;0.65;;;0.30;;
33268;SDS011;19640;50.944;5.260;2024-03-29T14:06:56;0.85;;;0.32;;
33268;SDS011;19640;50.944;5.260;2024-03-29T14:09:22;0.63;;;0.30;;
33268;SDS011;19640;50.944;5.260;2024-03-29T14:11:47;1.67;;;0.30;;
33268;SDS011;19640;50.944;5.260;2024-03-29T14:14:13;0.40;;;0.22;;
33268;SDS011;19640;50.944;5.260;2024-03-29T14:16:39;0.50;;;0.40;;
33268;SDS011;19640;50.944;5.260;2024-03-29T14:19:04;0.60;;;0.30;;
33268;SDS011;19640;50.944;5.260;2024-03-29T14:21:30;0.70;;;0.40;;
33268;SDS011;19640;50.944;5.260;2024-03-29T14:23:57;0.70;;;0.50;;
33268;SDS011;19640;50.944;5.260;2024-03-29T14:26:23;0.50;;;0.30;;
33268;SDS011;19640;50.944;5.260;2024-03-29T14:28:49;1.17;;;0.50;;
33268;SDS011;19640;50.944;5.260;2024-03-29T14:31:15;0.60;;;0.32;;
33268;SDS011;19640;50.944;5.260;2024-03-29T14:33:40;0.45;;;0.30;;
33268;SDS011;19640;50.944;5.260;2024-03-29T14:36:07;0.85;;;0.50;;
33268;SDS011;19640;50.944;5.260;2024-03-29T14:38:32;0.80;;;0.40;;
33268;SDS011;19640;50.944;5.260;2024-03-29T14:40:58;0.82;;;0.40;;
33268;SDS011;19640;50.944;5.260;2024-03-29T14:43:24;1.75;;;0.40;;
33268;SDS011;19640;50.944;5.260;2024-03-29T14:45:49;0.98;;;0.50;;
33268;SDS011;19640;50.944;5.260;2024-03-29T14:48:15;1.27;;;0.30;;
33268;SDS011;19640;50.944;5.260;2024-03-29T14:50:43;0.73;;;0.32;;
33268;SDS011;19640;50.944;5.260;2024-03-29T14:53:08;1.55;;;0.40;;